WIBB Airport Information

Runway Information
Runway 18 Length 7360 ft width 98 ft
Elevation 90 ft Threshold 0 ft Heading 182
Runway 36 Length 7360 ft Width 98 ft
Elevation 87 ft Threshold 0 ft Heading 2
Airport Frequencies
Type APP Name PEKANBARU Frequency 120.8 MHZ
Type TWR Name SYARIF TWR Frequency 118.1 MHZ
Airport Navaids
Type NDB Name Pekanbaru Frequency 350 KHZ
Type VOR-DME Name Pekanbaru Frequency 112100 KHZ
Airport Weather Information & NOTAM
ADDS - METARS form results

(1021 UTC 23 March 2019)
Data provider http://aviationweather.gov/metar/data/
 
METAR text: WIBB 231000Z 31005KT 9999 FEW018 33/23 Q1005
Conditions at: WIBB (PAKANBARU/SIMPAN, ID) observed 1000 UTC 23 March 2019
Temperature: 33.0°C (91°F)
Dewpoint: 23.0°C (73°F) [RH = 56%]
Pressure (altimeter): 29.68 inches Hg (1005.0 mb)
Winds: from the NW (310 degrees) at 6 MPH (5 knots; 2.6 m/s)
Visibility: 6 or more miles (10+ km)
Ceiling: at least 12,000 feet AGL
Clouds: few clouds at 1800 feet AGL
Weather: no significant weather observed at this time

METAR text: WIBB 230930Z 33006KT 9999 FEW015 34/23 Q1005
Conditions at: WIBB (PAKANBARU/SIMPAN, ID) observed 0930 UTC 23 March 2019
Temperature: 34.0°C (93°F)
Dewpoint: 23.0°C (73°F) [RH = 53%]
Pressure (altimeter): 29.68 inches Hg (1005.0 mb)
Winds: from the NNW (330 degrees) at 7 MPH (6 knots; 3.1 m/s)
Visibility: 6 or more miles (10+ km)
Ceiling: at least 12,000 feet AGL
Clouds: few clouds at 1500 feet AGL
Weather: no significant weather observed at this time